createdAt,value
2023-06-01T00:02:21.536Z,10.20
2023-06-01T00:04:49.551Z,9.73
2023-06-01T00:07:17.171Z,10.27
2023-06-01T00:09:44.934Z,9.77
2023-06-01T00:12:14.053Z,9.43
2023-06-01T00:14:42.292Z,8.60
2023-06-01T00:17:10.955Z,8.40
2023-06-01T00:19:39.592Z,7.60
2023-06-01T00:22:08.190Z,7.90
2023-06-01T00:24:36.021Z,7.40
2023-06-01T00:27:03.644Z,8.10
2023-06-01T00:29:32.930Z,8.50
2023-06-01T00:32:00.905Z,9.00
2023-06-01T00:34:28.533Z,9.50
2023-06-01T00:36:56.131Z,9.80
2023-06-01T00:39:23.782Z,8.80
2023-06-01T00:41:51.317Z,9.77
2023-06-01T00:44:19.471Z,9.80
2023-06-01T00:46:48.572Z,8.30
2023-06-01T00:49:16.256Z,11.60
2023-06-01T00:51:43.841Z,10.50
2023-06-01T00:54:12.627Z,10.87
2023-06-01T00:56:40.341Z,9.97
2023-06-01T00:59:08.030Z,12.77
2023-06-01T01:01:37.707Z,11.87
2023-06-01T01:04:07.008Z,10.37
2023-06-01T01:06:57.318Z,11.67
2023-06-01T01:09:38.888Z,11.83
2023-06-01T01:12:12.168Z,12.67
2023-06-01T01:14:43.186Z,12.43
2023-06-01T01:17:16.059Z,11.00
2023-06-01T01:19:58.925Z,10.77
2023-06-01T01:22:41.860Z,10.10
2023-06-01T01:25:43.410Z,10.00
2023-06-01T01:28:48.794Z,9.83
2023-06-01T01:31:30.652Z,9.50
2023-06-01T01:34:25.070Z,9.27
2023-06-01T01:36:58.490Z,8.17
2023-06-01T01:39:30.321Z,7.03
2023-06-01T01:42:07.882Z,7.60
2023-06-01T01:44:43.317Z,7.00
2023-06-01T01:47:44.178Z,7.97
2023-06-01T01:50:24.440Z,7.17
2023-06-01T01:53:04.839Z,7.87
2023-06-01T01:55:35.968Z,8.77
2023-06-01T01:58:16.357Z,7.40
2023-06-01T02:00:58.121Z,8.63
2023-06-01T02:03:30.243Z,8.30
2023-06-01T02:06:05.599Z,9.10
2023-06-01T02:08:42.472Z,8.50
2023-06-01T02:11:21.612Z,9.23
2023-06-01T02:13:50.906Z,10.10
2023-06-01T02:16:45.365Z,10.07
2023-06-01T02:19:16.872Z,10.50
2023-06-01T02:22:01.042Z,10.50
2023-06-01T02:24:32.098Z,11.03
2023-06-01T02:27:11.693Z,11.73
2023-06-01T02:29:47.404Z,10.37
2023-06-01T02:32:20.205Z,10.63
2023-06-01T02:34:52.223Z,9.10
2023-06-01T02:37:23.497Z,9.60
2023-06-01T02:39:54.518Z,10.50
2023-06-01T02:42:26.014Z,9.67
2023-06-01T02:47:45.284Z,9.13
2023-06-01T02:50:26.882Z,9.30
2023-06-01T02:53:08.322Z,8.83
2023-06-01T02:55:41.343Z,7.90
2023-06-01T02:58:31.669Z,8.40
2023-06-01T03:01:12.896Z,8.30
2023-06-01T03:03:44.327Z,8.13
2023-06-01T03:06:14.437Z,9.57
2023-06-01T03:08:57.597Z,9.13
2023-06-01T03:11:49.971Z,8.87
2023-06-01T03:14:18.252Z,9.50
2023-06-01T03:16:47.715Z,9.60
2023-06-01T03:19:22.207Z,8.73
2023-06-01T03:21:53.963Z,9.30
2023-06-01T03:24:27.190Z,9.17
2023-06-01T03:26:54.971Z,10.87
2023-06-01T03:29:23.532Z,8.97
2023-06-01T03:31:52.023Z,8.60
2023-06-01T03:34:23.568Z,8.30
2023-06-01T03:36:51.078Z,7.73
2023-06-01T03:39:18.930Z,6.97
2023-06-01T03:41:46.950Z,7.57
2023-06-01T03:44:14.641Z,6.33
2023-06-01T03:46:43.022Z,5.90
2023-06-01T03:49:10.583Z,6.77
2023-06-01T03:51:40.221Z,6.07
2023-06-01T03:54:10.153Z,7.00
2023-06-01T03:56:37.910Z,7.80
2023-06-01T03:59:07.499Z,8.40
2023-06-01T04:01:39.416Z,9.40
2023-06-01T04:04:09.613Z,8.60
2023-06-01T04:06:37.831Z,8.80
2023-06-01T04:09:08.200Z,9.00
2023-06-01T04:11:37.090Z,8.07
2023-06-01T04:14:04.904Z,9.10
2023-06-01T04:16:33.675Z,6.80
2023-06-01T04:19:01.900Z,9.00
2023-06-01T04:21:33.320Z,7.63
2023-06-01T04:24:01.576Z,7.40
2023-06-01T04:26:33.124Z,8.00
2023-06-01T04:29:01.681Z,8.53
2023-06-01T04:31:29.398Z,7.30
2023-06-01T04:33:57.547Z,7.10
2023-06-01T04:36:28.282Z,6.50
2023-06-01T04:38:59.498Z,5.13
2023-06-01T04:41:28.177Z,6.67
2023-06-01T04:43:59.346Z,7.50
2023-06-01T04:46:30.551Z,6.30
2023-06-01T04:49:02.147Z,6.37
2023-06-01T04:51:32.204Z,6.50
2023-06-01T04:54:01.087Z,6.80
2023-06-01T04:56:29.871Z,6.40
2023-06-01T04:58:59.199Z,5.43
2023-06-01T05:01:31.740Z,6.60
2023-06-01T05:03:59.753Z,6.30
2023-06-01T05:06:28.263Z,6.07
2023-06-01T05:08:56.530Z,5.67
2023-06-01T05:11:24.736Z,5.70
2023-06-01T05:13:53.845Z,5.33
2023-06-01T05:16:23.511Z,6.57
2023-06-01T05:18:53.030Z,4.83
2023-06-01T05:21:21.062Z,6.17
2023-06-01T05:23:48.708Z,4.80
2023-06-01T05:26:16.417Z,6.07
2023-06-01T05:28:44.524Z,6.20
2023-06-01T05:31:14.289Z,4.87
2023-06-01T05:33:48.094Z,5.37
2023-06-01T05:36:16.715Z,4.37
2023-06-01T05:38:44.318Z,5.17
2023-06-01T05:41:13.364Z,5.00
2023-06-01T05:43:41.582Z,4.33
2023-06-01T05:46:09.648Z,5.47
2023-06-01T05:48:40.883Z,4.33
2023-06-01T05:51:10.629Z,5.60
2023-06-01T05:53:40.862Z,5.40
2023-06-01T05:56:09.121Z,4.20
2023-06-01T05:58:36.764Z,5.07
2023-06-01T06:01:04.632Z,4.80
2023-06-01T06:03:32.478Z,5.50
2023-06-01T06:06:00.039Z,5.53
2023-06-01T06:08:29.122Z,4.27
2023-06-01T06:10:57.628Z,5.13
2023-06-01T06:13:25.791Z,4.23
2023-06-01T06:15:53.347Z,4.57
2023-06-01T06:18:21.445Z,5.07
2023-06-01T06:20:49.139Z,4.67
2023-06-01T06:23:16.899Z,4.50
2023-06-01T06:25:47.453Z,4.80
2023-06-01T06:28:15.288Z,4.90
2023-06-01T06:30:42.913Z,4.57
2023-06-01T06:33:12.983Z,5.70
2023-06-01T06:35:43.110Z,4.50
2023-06-01T06:38:13.989Z,4.30
2023-06-01T06:40:41.532Z,4.23
2023-06-01T06:43:10.789Z,4.57
2023-06-01T06:45:38.329Z,6.67
2023-06-01T06:48:06.456Z,4.53
2023-06-01T06:50:34.095Z,4.07
2023-06-01T06:53:02.752Z,3.67
2023-06-01T06:55:30.460Z,4.50
2023-06-01T06:57:57.961Z,3.90
2023-06-01T07:00:26.943Z,3.30
2023-06-01T07:02:54.848Z,4.67
2023-06-01T07:05:22.646Z,3.80
2023-06-01T07:07:50.313Z,4.37
2023-06-01T07:10:17.860Z,5.30
2023-06-01T07:12:45.754Z,3.90
2023-06-01T07:15:13.522Z,3.70
2023-06-01T07:17:43.900Z,4.00
2023-06-01T07:20:12.770Z,3.17
2023-06-01T07:22:40.727Z,3.10
2023-06-01T07:25:09.905Z,3.13
2023-06-01T07:27:37.523Z,3.27
2023-06-01T07:30:06.127Z,3.17
2023-06-01T07:32:34.118Z,3.40
2023-06-01T07:35:05.960Z,3.40
2023-06-01T07:37:33.564Z,3.70
2023-06-01T07:40:04.907Z,4.40
2023-06-01T07:42:33.673Z,3.00
2023-06-01T07:45:01.259Z,3.60
2023-06-01T07:47:29.996Z,3.63
2023-06-01T07:49:57.714Z,3.80
2023-06-01T07:52:26.813Z,3.23
2023-06-01T07:54:54.431Z,4.57
2023-06-01T07:57:22.044Z,4.10
2023-06-01T07:59:49.652Z,3.70
2023-06-01T08:02:17.301Z,3.57
2023-06-01T08:04:45.408Z,3.27
2023-06-01T08:07:15.147Z,4.37
2023-06-01T08:09:44.376Z,3.97
2023-06-01T08:12:12.988Z,3.33
2023-06-01T08:14:42.157Z,4.10
2023-06-01T08:17:13.044Z,4.03
2023-06-01T08:19:42.920Z,4.60
2023-06-01T08:22:12.799Z,4.90
2023-06-01T08:24:40.572Z,4.57
2023-06-01T08:27:20.029Z,4.20
2023-06-01T08:29:49.290Z,4.17
2023-06-01T08:32:17.980Z,4.83
2023-06-01T08:34:46.522Z,4.93
2023-06-01T08:37:14.718Z,5.10
2023-06-01T08:39:42.447Z,5.60
2023-06-01T08:42:13.215Z,4.43
2023-06-01T08:44:42.933Z,4.70
2023-06-01T08:47:11.632Z,3.50
2023-06-01T08:49:43.133Z,4.50
2023-06-01T08:52:13.872Z,4.10
2023-06-01T08:54:41.654Z,4.33
2023-06-01T08:57:09.611Z,3.33
2023-06-01T08:59:37.738Z,4.23
2023-06-01T09:02:07.265Z,4.40
2023-06-01T09:04:38.469Z,3.90
2023-06-01T09:07:06.628Z,4.03
2023-06-01T09:09:34.564Z,3.90
2023-06-01T09:12:19.246Z,3.70
2023-06-01T09:14:46.914Z,4.00
2023-06-01T09:17:17.163Z,3.40
2023-06-01T09:19:45.776Z,3.03
2023-06-01T09:22:14.318Z,4.00
2023-06-01T09:24:42.631Z,4.70
2023-06-01T09:27:10.416Z,3.40
2023-06-01T09:29:37.977Z,4.37
2023-06-01T09:32:06.515Z,4.60
2023-06-01T09:34:46.704Z,4.10
2023-06-01T09:37:14.906Z,3.70
2023-06-01T09:39:42.560Z,4.03
2023-06-01T09:42:10.366Z,3.20
2023-06-01T09:44:38.918Z,3.50
2023-06-01T09:47:10.234Z,3.50
2023-06-01T09:49:40.818Z,4.40
2023-06-01T09:52:15.835Z,5.40
2023-06-01T09:54:45.216Z,4.70
2023-06-01T09:57:14.094Z,6.10
2023-06-01T09:59:43.823Z,4.47
2023-06-01T10:02:14.971Z,3.90
2023-06-01T10:04:47.485Z,4.00
2023-06-01T10:07:15.816Z,4.13
2023-06-01T10:09:44.634Z,3.60
2023-06-01T10:12:12.441Z,3.30
2023-06-01T10:14:40.441Z,4.67
2023-06-01T10:17:09.538Z,3.17
2023-06-01T10:19:38.649Z,4.20
2023-06-01T10:22:08.565Z,4.60
2023-06-01T10:24:42.347Z,4.03
2023-06-01T10:27:17.590Z,4.67
2023-06-01T10:29:45.282Z,3.50
2023-06-01T10:32:45.081Z,5.67
2023-06-01T10:36:06.133Z,6.80
2023-06-01T10:38:35.212Z,3.57
2023-06-01T10:41:29.674Z,2.93
2023-06-01T10:43:57.709Z,3.80
2023-06-01T10:46:45.943Z,3.80
2023-06-01T10:49:14.145Z,3.97
2023-06-01T10:51:41.801Z,3.57
2023-06-01T10:54:31.414Z,4.03
2023-06-01T10:57:24.835Z,3.67
2023-06-01T11:00:16.954Z,3.80
2023-06-01T11:02:49.921Z,3.67
2023-06-01T11:05:44.707Z,3.87
2023-06-01T11:08:49.940Z,3.70
2023-06-01T11:11:21.377Z,3.73
2023-06-01T11:14:07.539Z,4.10
2023-06-01T11:16:35.180Z,3.10
2023-06-01T11:19:04.782Z,3.33
2023-06-01T11:21:36.269Z,3.37
2023-06-01T11:24:11.246Z,4.10
2023-06-01T11:26:42.288Z,3.90
2023-06-01T11:29:13.122Z,3.30
2023-06-01T11:31:43.738Z,3.47
2023-06-01T11:34:12.175Z,3.40
2023-06-01T11:36:41.423Z,3.90
2023-06-01T11:39:27.255Z,3.37
2023-06-01T11:42:09.836Z,3.70
2023-06-01T11:44:38.791Z,3.00
2023-06-01T11:47:07.963Z,2.80
2023-06-01T11:49:43.483Z,2.80
2023-06-01T11:52:12.175Z,2.83
2023-06-01T11:54:39.924Z,3.13
2023-06-01T11:57:09.549Z,3.30
2023-06-01T11:59:40.421Z,2.87
2023-06-01T12:02:19.775Z,3.27
2023-06-01T12:04:58.041Z,2.83
2023-06-01T12:07:26.048Z,3.03
2023-06-01T12:09:54.876Z,2.50
2023-06-01T12:12:25.784Z,2.73
2023-06-01T12:14:53.857Z,3.27
2023-06-01T12:17:21.784Z,2.40
2023-06-01T12:19:50.685Z,2.23
2023-06-01T12:22:19.150Z,2.27
2023-06-01T12:24:47.000Z,2.40
2023-06-01T12:27:16.164Z,2.10
2023-06-01T12:29:47.851Z,1.90
2023-06-01T12:32:19.664Z,2.70
2023-06-01T12:35:04.888Z,2.90
2023-06-01T12:37:32.632Z,2.70
2023-06-01T12:40:01.115Z,2.87
2023-06-01T12:42:39.299Z,2.17
2023-06-01T12:45:09.691Z,2.70
2023-06-01T12:47:39.128Z,2.73
2023-06-01T12:50:08.360Z,2.33
2023-06-01T12:52:36.451Z,2.50
2023-06-01T12:55:04.922Z,2.87
2023-06-01T12:57:32.842Z,2.80
2023-06-01T13:00:00.817Z,1.97
2023-06-01T13:02:30.598Z,2.30
2023-06-01T13:04:59.563Z,2.67
2023-06-01T13:07:27.451Z,2.10
2023-06-01T13:09:54.983Z,2.33
2023-06-01T13:12:22.536Z,2.83
2023-06-01T13:14:50.808Z,2.83
2023-06-01T13:17:18.651Z,3.17
2023-06-01T13:19:49.162Z,2.40
2023-06-01T13:22:16.975Z,3.23
2023-06-01T13:27:15.078Z,2.67
2023-06-01T13:29:43.060Z,3.07
2023-06-01T13:32:11.272Z,3.87
2023-06-01T13:34:41.630Z,2.70
2023-06-01T13:37:11.217Z,3.40
2023-06-01T13:39:38.866Z,2.90
2023-06-01T13:42:07.954Z,3.03
2023-06-01T13:44:35.562Z,2.57
2023-06-01T13:47:03.956Z,3.33
2023-06-01T13:49:31.629Z,3.30
2023-06-01T13:52:00.123Z,3.50
2023-06-01T13:54:29.061Z,2.80
2023-06-01T13:56:56.944Z,3.50
2023-06-01T13:59:24.798Z,2.93
2023-06-01T14:01:52.911Z,3.00
2023-06-01T14:04:20.549Z,2.87
2023-06-01T14:06:48.947Z,3.50
2023-06-01T14:09:16.881Z,2.53
2023-06-01T14:11:45.802Z,2.70
2023-06-01T14:14:13.532Z,2.83
2023-06-01T14:16:41.164Z,2.07
2023-06-01T14:19:08.832Z,3.27
2023-06-01T14:21:37.151Z,2.40
2023-06-01T14:24:04.971Z,2.50
2023-06-01T14:26:32.827Z,2.53
2023-06-01T14:29:01.921Z,3.30
2023-06-01T14:31:29.528Z,3.20
2023-06-01T14:33:57.274Z,3.00
2023-06-01T14:36:34.425Z,2.70
2023-06-01T14:39:13.406Z,2.60
2023-06-01T14:41:43.444Z,2.50
2023-06-01T14:44:15.072Z,3.27
2023-06-01T14:46:43.054Z,3.70
2023-06-01T14:49:10.753Z,3.97
2023-06-01T14:51:38.458Z,2.83
2023-06-01T14:54:06.226Z,3.33
2023-06-01T14:56:33.828Z,4.50
2023-06-01T14:59:01.431Z,2.20
2023-06-01T15:01:30.584Z,2.63
2023-06-01T15:03:58.151Z,4.40
2023-06-01T15:06:25.764Z,3.40
2023-06-01T15:08:53.362Z,3.67
2023-06-01T15:11:21.599Z,3.03
2023-06-01T15:13:49.121Z,4.93
2023-06-01T15:16:17.123Z,6.70
2023-06-01T15:18:46.030Z,4.10
2023-06-01T15:21:13.614Z,2.70
2023-06-01T15:23:42.140Z,3.00
2023-06-01T15:26:09.693Z,3.80
2023-06-01T15:28:37.244Z,3.33
2023-06-01T15:31:05.182Z,3.63
2023-06-01T15:33:33.099Z,3.80
2023-06-01T15:36:02.004Z,4.00
2023-06-01T15:38:29.587Z,2.87
2023-06-01T15:40:57.167Z,2.80
2023-06-01T15:43:24.897Z,3.30
2023-06-01T15:45:52.457Z,3.80
2023-06-01T15:48:20.177Z,4.47
2023-06-01T15:50:47.805Z,2.77
2023-06-01T15:53:16.834Z,3.37
2023-06-01T15:55:44.430Z,3.10
2023-06-01T15:58:11.957Z,3.40
2023-06-01T16:00:39.499Z,5.80
2023-06-01T16:03:07.266Z,3.50
2023-06-01T16:05:34.827Z,4.37
2023-06-01T16:08:02.537Z,3.60
2023-06-01T16:10:31.603Z,4.00
2023-06-01T16:12:59.197Z,3.50
2023-06-01T16:15:26.836Z,3.93
2023-06-01T16:17:54.660Z,4.00
2023-06-01T16:20:22.198Z,3.70
2023-06-01T16:22:49.755Z,3.30
2023-06-01T16:25:23.858Z,3.60
2023-06-01T16:27:54.462Z,4.33
2023-06-01T16:30:22.889Z,3.80
2023-06-01T16:32:50.430Z,3.43
2023-06-01T16:35:18.286Z,2.80
2023-06-01T16:37:46.305Z,3.30
2023-06-01T16:40:14.196Z,2.90
2023-06-01T16:42:41.988Z,4.00
2023-06-01T16:45:11.669Z,4.03
2023-06-01T16:47:39.560Z,4.67
2023-06-01T16:50:07.991Z,3.93
2023-06-01T16:52:36.000Z,3.00
2023-06-01T16:55:03.979Z,3.77
2023-06-01T17:00:00.187Z,3.80
2023-06-01T17:02:31.999Z,3.67
2023-06-01T17:04:59.889Z,3.40
2023-06-01T17:07:27.616Z,4.30
2023-06-01T17:09:55.580Z,4.57
2023-06-01T17:12:23.351Z,4.40
2023-06-01T17:14:51.553Z,4.17
2023-06-01T17:17:20.739Z,3.30
2023-06-01T17:19:49.979Z,4.87
2023-06-01T17:22:17.562Z,5.30
2023-06-01T17:24:46.284Z,3.53
2023-06-01T17:27:16.057Z,4.43
2023-06-01T17:29:43.752Z,3.67
2023-06-01T17:32:11.485Z,4.57
2023-06-01T17:34:39.417Z,3.87
2023-06-01T17:37:08.332Z,4.50
2023-06-01T17:39:36.368Z,3.67
2023-06-01T17:42:04.443Z,4.10
2023-06-01T17:44:31.984Z,5.10
2023-06-01T17:46:59.601Z,3.77
2023-06-01T17:49:27.254Z,3.90
2023-06-01T17:51:55.138Z,5.00
2023-06-01T17:54:24.099Z,4.40
2023-06-01T17:56:51.693Z,4.17
2023-06-01T17:59:19.244Z,3.20
2023-06-01T18:01:46.864Z,3.77
2023-06-01T18:04:14.458Z,3.70
2023-06-01T18:06:42.133Z,4.40
2023-06-01T18:09:09.826Z,3.93
2023-06-01T18:11:38.739Z,3.90
2023-06-01T18:14:06.336Z,4.40
2023-06-01T18:16:33.994Z,3.50
2023-06-01T18:19:01.592Z,4.50
2023-06-01T18:21:29.252Z,5.10
2023-06-01T18:23:56.896Z,3.37
2023-06-01T18:26:24.421Z,3.30
2023-06-01T18:28:53.478Z,6.07
2023-06-01T18:31:21.017Z,4.20
2023-06-01T18:33:48.697Z,4.57
2023-06-01T18:36:16.666Z,4.17
2023-06-01T18:38:46.903Z,4.10
2023-06-01T18:41:15.028Z,3.27
2023-06-01T18:43:42.584Z,3.80
2023-06-01T18:46:11.935Z,3.60
2023-06-01T18:48:39.530Z,3.63
2023-06-01T18:51:08.095Z,3.93
2023-06-01T18:53:36.030Z,3.60
2023-06-01T18:56:04.436Z,5.60
2023-06-01T18:58:32.123Z,3.97
2023-06-01T19:00:59.884Z,4.00
2023-06-01T19:03:28.902Z,3.70
2023-06-01T19:05:56.938Z,3.90
2023-06-01T19:08:24.554Z,4.67
2023-06-01T19:11:03.253Z,4.10
2023-06-01T19:13:37.777Z,4.67
2023-06-01T19:16:07.754Z,6.20
2023-06-01T19:18:36.921Z,4.97
2023-06-01T19:21:15.591Z,4.53
2023-06-01T19:24:02.041Z,3.83
2023-06-01T19:26:31.240Z,4.20
2023-06-01T19:29:01.762Z,3.77
2023-06-01T19:31:34.147Z,5.87
2023-06-01T19:34:04.460Z,4.10
2023-06-01T19:36:58.235Z,3.97
2023-06-01T19:39:44.142Z,4.10
2023-06-01T19:42:31.469Z,4.83
2023-06-01T19:45:01.674Z,4.13
2023-06-01T19:47:40.862Z,6.07
2023-06-01T19:50:23.672Z,3.80
2023-06-01T19:52:51.468Z,4.57
2023-06-01T19:55:19.508Z,4.10
2023-06-01T19:57:47.502Z,3.73
2023-06-01T20:00:16.247Z,6.37
2023-06-01T20:02:47.629Z,12.40
2023-06-01T20:05:20.826Z,4.67
2023-06-01T20:07:50.219Z,7.63
2023-06-01T20:10:19.452Z,4.37
2023-06-01T20:12:48.781Z,17.93
2023-06-01T20:15:21.125Z,5.50
2023-06-01T20:17:51.958Z,3.00
2023-06-01T20:20:22.509Z,6.43
2023-06-01T20:22:54.370Z,5.37
2023-06-01T20:25:24.939Z,13.97
2023-06-01T20:27:53.079Z,4.27
2023-06-01T20:30:50.418Z,4.90
2023-06-01T20:33:22.014Z,5.20
2023-06-01T20:35:52.794Z,4.40
2023-06-01T20:38:21.306Z,5.20
2023-06-01T20:41:12.194Z,4.97
2023-06-01T20:43:43.901Z,4.80
2023-06-01T20:46:15.254Z,5.17
2023-06-01T20:48:51.138Z,5.03
2023-06-01T20:51:26.539Z,4.83
2023-06-01T20:53:56.931Z,3.90
2023-06-01T20:56:31.295Z,4.73
2023-06-01T20:59:08.009Z,5.00
2023-06-01T21:01:37.824Z,5.67
2023-06-01T21:04:07.948Z,6.87
2023-06-01T21:06:37.838Z,5.03
2023-06-01T21:09:07.700Z,5.33
2023-06-01T21:11:37.482Z,5.57
2023-06-01T21:14:05.746Z,5.40
2023-06-01T21:16:33.675Z,4.80
2023-06-01T21:19:08.882Z,5.40
2023-06-01T21:21:38.383Z,4.47
2023-06-01T21:24:06.577Z,6.83
2023-06-01T21:26:35.317Z,5.67
2023-06-01T21:29:03.264Z,5.57
2023-06-01T21:31:31.017Z,5.20
2023-06-01T21:33:58.762Z,4.40
2023-06-01T21:36:26.348Z,5.33
2023-06-01T21:38:55.316Z,4.90
2023-06-01T21:41:22.884Z,5.90
2023-06-01T21:43:50.500Z,6.13
2023-06-01T21:46:18.920Z,5.63
2023-06-01T21:48:48.305Z,5.80
2023-06-01T21:51:16.225Z,5.13
2023-06-01T21:53:43.766Z,4.50
2023-06-01T21:56:13.296Z,5.70
2023-06-01T21:58:43.504Z,4.97
2023-06-01T22:01:12.551Z,5.50
2023-06-01T22:03:41.035Z,4.50
2023-06-01T22:06:09.638Z,4.30
2023-06-01T22:08:37.391Z,4.60
2023-06-01T22:11:05.280Z,5.20
2023-06-01T22:13:34.289Z,5.83
2023-06-01T22:16:02.033Z,4.67
2023-06-01T22:18:29.762Z,4.83
2023-06-01T22:20:57.714Z,5.10
2023-06-01T22:23:26.345Z,4.70
2023-06-01T22:25:54.152Z,4.70
2023-06-01T22:28:21.879Z,4.57
2023-06-01T22:30:50.891Z,5.43
2023-06-01T22:33:18.567Z,4.70
2023-06-01T22:35:46.106Z,4.43
2023-06-01T22:38:13.711Z,5.60
2023-06-01T22:40:41.387Z,5.13
2023-06-01T22:43:09.196Z,4.93
2023-06-01T22:45:36.783Z,5.03
2023-06-01T22:48:05.973Z,5.70
2023-06-01T22:50:33.572Z,6.13
2023-06-01T22:53:01.174Z,5.00
2023-06-01T22:55:29.158Z,4.60
2023-06-01T22:57:56.766Z,4.70
2023-06-01T23:00:24.423Z,4.33
2023-06-01T23:02:52.078Z,6.00
2023-06-01T23:05:22.075Z,5.07
2023-06-01T23:07:52.041Z,4.83
2023-06-01T23:10:19.655Z,4.70
2023-06-01T23:12:49.455Z,4.83
2023-06-01T23:15:17.729Z,5.77
2023-06-01T23:17:47.106Z,5.43
2023-06-01T23:20:17.217Z,5.43
2023-06-01T23:22:47.379Z,7.40
2023-06-01T23:25:15.824Z,5.30
2023-06-01T23:27:43.547Z,5.53
2023-06-01T23:30:12.347Z,5.30
2023-06-01T23:32:39.945Z,5.03
2023-06-01T23:35:08.207Z,4.80
2023-06-01T23:37:36.179Z,5.50
2023-06-01T23:40:06.179Z,6.87
2023-06-01T23:42:33.704Z,4.97
2023-06-01T23:45:02.225Z,6.30
2023-06-01T23:47:29.730Z,5.00
2023-06-01T23:49:58.448Z,4.30
2023-06-01T23:52:25.958Z,5.30
2023-06-01T23:54:53.480Z,7.60
2023-06-01T23:57:22.331Z,4.80
2023-06-01T23:59:49.909Z,5.67
